Aviation Digital Data Service (ADDS)

Output produced by METARs form (0613 UTC 22 February 2017)
found at http://aviationweather.gov/adds/metars/
 
KDUJ 220542Z 2206/2306 14005KT P6SM OVC100 
     FM220800 18005KT P6SM VCSH OVC050 
     FM221400 21005KT P6SM BKN020 
     FM222200 21005KT P6SM BKN035 
     FM230200 20005KT P6SM BKN012